Hatchel, Texas
Current Conditions -  °F | °C
As of 3:58 PM on Saturday 25 Oct 2014 (Local Time) from KDYS Reporting Station
Clear Clear  
Wind Chill: 89°   Ceiling: Unl
Heat Index: 89°   Visibility: 10mi
Dew Point: 47°   Wind: 13mph
Humidity: 24%   Direction: 190°S
Pressure: 30.08"   Gusts: 22mph
Location:  31.975°N, 99.9034°W
Report Text: KDYS 252058Z AUTO 19011G19KT 10SM CLR 32/09 A3008 RMK AO2 SLP140 T03160085 57019 $
Loading
Personal Weather Stations






























Interactive Weather Map
Tropical Storm Tracking
New forecast layout! Learn more

10-Day Weather Forecast

Advertisements
Track Severe Weather on mobile